Time;durP1;ratioP1;P1;durP2;ratioP2;P2;SDS_P1;SDS_P2;PMS_P1;PMS_P2;Temp;Humidity;BMP_temperature;BMP_pressure;BME280_temperature;BME280_humidity;BME280_pressure;Samples;Min_cycle;Max_cycle;Signal;HPM_P1;HPM_P2
2023/04/10 00:01:48;;;;;;;;;;;7.70;99.90;;;;;;5093148;28;19928;-86
2023/04/10 00:04:14;;;;;;;;;;;7.70;99.90;;;;;;5075747;28;19924;-86
2023/04/10 00:06:40;;;;;;;;;;;7.70;99.90;;;;;;5135359;27;20367;-86
2023/04/10 00:09:06;;;;;;;;;;;7.60;99.90;;;;;;5087413;28;19928;-87
2023/04/10 00:11:34;;;;;;;;;;;7.60;99.90;;;;;;5126219;27;19935;-86
2023/04/10 00:14:00;;;;;;;;;;;7.60;99.90;;;;;;5093053;28;19924;-86
2023/04/10 00:16:26;;;;;;;;;;;7.60;99.90;;;;;;5126801;27;20393;-86
2023/04/10 00:18:51;;;;;;;;;;;7.50;99.90;;;;;;5108857;28;19924;-87
2023/04/10 00:21:17;;;;;;;;;;;7.50;99.90;;;;;;5084277;28;19924;-86
2023/04/10 00:23:42;;;;;;;;;;;7.50;99.90;;;;;;5098984;28;19924;-86
2023/04/10 00:26:08;;;;;;;;;;;7.40;99.90;;;;;;5118181;27;19928;-86
2023/04/10 00:28:36;;;;;;;;;;;7.40;99.90;;;;;;5096700;28;20305;-86
2023/04/10 00:31:05;;;;;;;;;;;7.40;99.90;;;;;;5095670;28;19965;-86
2023/04/10 00:33:31;;;;;;;;;;;7.40;99.90;;;;;;5083333;28;19934;-85
2023/04/10 00:35:56;;;;;;;;;;;7.40;99.90;;;;;;5096100;28;19924;-86
2023/04/10 00:38:22;;;;;;;;;;;7.30;99.90;;;;;;5101662;28;19924;-86
2023/04/10 00:40:48;;;;;;;;;;;7.30;99.90;;;;;;5090729;28;19951;-86
2023/04/10 00:43:13;;;;;;;;;;;7.30;99.90;;;;;;5091128;28;19930;-86
2023/04/10 00:45:41;;;;;;;;;;;7.30;99.90;;;;;;5090798;28;20206;-86
2023/04/10 00:48:06;;;;;;;;;;;7.20;99.90;;;;;;5121037;27;19993;-86
2023/04/10 00:50:32;;;;;;;;;;;7.20;99.90;;;;;;5091884;28;19933;-86
2023/04/10 00:52:58;;;;;;;;;;;7.20;99.90;;;;;;5074751;28;19934;-86
2023/04/10 00:55:24;;;;;;;;;;;7.20;99.90;;;;;;5088000;28;19925;-86
2023/04/10 00:57:50;;;;;;;;;;;7.20;99.90;;;;;;5053707;28;19924;-86
2023/04/10 01:00:16;;;;;;;;;;;7.10;99.90;;;;;;5104782;28;20044;-87
2023/04/10 01:02:41;;;;;;;;;;;7.10;99.90;;;;;;5073363;28;19985;-86
2023/04/10 01:05:09;;;;;;;;;;;7.00;99.90;;;;;;5075031;28;19924;-86
2023/04/10 01:07:47;;;;;;;;;;;7.00;99.90;;;;;;5091518;28;19928;-87
2023/04/10 01:10:28;;;;;;;;;;;7.00;99.90;;;;;;5074900;28;20391;-87
2023/04/10 01:12:53;;;;;;;;;;;7.00;99.90;;;;;;5079919;28;20415;-86
2023/04/10 01:15:21;;;;;;;;;;;6.90;99.90;;;;;;5108843;28;19967;-86
2023/04/10 01:17:59;;;;;;;;;;;6.90;99.90;;;;;;5079053;28;19932;-86
2023/04/10 01:20:26;;;;;;;;;;;6.90;99.90;;;;;;5100364;28;20007;-86
2023/04/10 01:22:57;;;;;;;;;;;6.90;99.90;;;;;;5095108;28;19928;-86
2023/04/10 01:25:23;;;;;;;;;;;6.90;99.90;;;;;;5117079;28;19924;-87
2023/04/10 01:28:09;;;;;;;;;;;6.90;99.90;;;;;;5092057;28;19994;-87
2023/04/10 01:30:35;;;;;;;;;;;6.90;99.90;;;;;;5101149;27;19924;-86
2023/04/10 01:33:01;;;;;;;;;;;6.90;99.90;;;;;;5111340;28;19931;-86
2023/04/10 01:35:28;;;;;;;;;;;6.80;99.90;;;;;;5078757;28;19924;-86
2023/04/10 01:37:54;;;;;;;;;;;6.80;99.90;;;;;;5095545;28;19928;-86
2023/04/10 01:40:20;;;;;;;;;;;6.80;99.90;;;;;;5091514;28;19924;-87
2023/04/10 01:42:51;;;;;;;;;;;6.80;99.90;;;;;;5138822;27;19924;-87
2023/04/10 01:45:18;;;;;;;;;;;6.80;99.90;;;;;;5095418;28;19975;-87
2023/04/10 01:47:44;;;;;;;;;;;6.70;99.90;;;;;;5130172;27;19924;-86
2023/04/10 01:50:10;;;;;;;;;;;6.70;99.90;;;;;;5129608;27;19924;-86
2023/04/10 01:52:36;;;;;;;;;;;6.70;99.90;;;;;;5063144;28;19940;-86
2023/04/10 01:55:03;;;;;;;;;;;6.70;99.90;;;;;;5077837;28;20340;-86
2023/04/10 01:57:30;;;;;;;;;;;6.70;99.90;;;;;;5081482;28;19932;-87
2023/04/10 01:59:56;;;;;;;;;;;6.60;99.90;;;;;;5102313;28;19932;-86
2023/04/10 02:02:22;;;;;;;;;;;6.60;99.90;;;;;;5062534;28;19932;-86
2023/04/10 02:04:50;;;;;;;;;;;6.60;99.90;;;;;;5085285;28;20303;-86
2023/04/10 02:07:24;;;;;;;;;;;6.60;99.90;;;;;;5095813;28;19924;-87
2023/04/10 02:09:57;;;;;;;;;;;6.60;99.90;;;;;;5087475;28;20247;-86
2023/04/10 02:12:26;;;;;;;;;;;6.60;99.90;;;;;;5105307;28;19924;-86
2023/04/10 02:14:52;;;;;;;;;;;6.60;99.90;;;;;;5094919;28;19931;-86
2023/04/10 02:17:22;;;;;;;;;;;6.60;99.90;;;;;;5099332;28;20011;-86
2023/04/10 02:19:47;;;;;;;;;;;6.50;99.90;;;;;;5121698;27;19975;-86
2023/04/10 02:22:14;;;;;;;;;;;6.50;99.90;;;;;;5095050;28;19931;-86
2023/04/10 02:24:40;;;;;;;;;;;6.50;99.90;;;;;;5122091;27;19924;-87
2023/04/10 02:27:06;;;;;;;;;;;6.50;99.90;;;;;;5100942;28;19932;-87
2023/04/10 02:29:31;;;;;;;;;;;7.60;99.90;;;;;;5096457;28;19932;-86
2023/04/10 02:31:57;;;;;;;;;;;6.50;99.90;;;;;;5085233;28;19927;-85
2023/04/10 02:34:22;;;;;;;;;;;6.40;99.90;;;;;;5105762;28;19931;-86
2023/04/10 02:36:48;;;;;;;;;;;6.40;99.90;;;;;;5090413;28;20322;-86
2023/04/10 02:39:14;;;;;;;;;;;6.40;99.90;;;;;;5098065;28;19970;-86
2023/04/10 02:41:39;;;;;;;;;;;6.40;99.90;;;;;;5103833;28;20090;-86
2023/04/10 02:44:05;;;;;;;;;;;6.40;99.90;;;;;;5098548;28;19928;-86
2023/04/10 02:46:31;;;;;;;;;;;6.40;99.90;;;;;;5093316;28;19924;-87
2023/04/10 02:48:56;;;;;;;;;;;6.40;99.90;;;;;;5074234;28;19930;-86
2023/04/10 02:51:22;;;;;;;;;;;6.40;99.90;;;;;;5060028;28;20004;-86
2023/04/10 02:53:48;;;;;;;;;;;6.40;99.90;;;;;;5075643;28;19932;-86
2023/04/10 02:56:13;;;;;;;;;;;6.40;99.90;;;;;;5094458;28;19930;-86
2023/04/10 02:58:44;;;;;;;;;;;6.40;99.90;;;;;;5113142;28;19931;-86
2023/04/10 03:01:10;;;;;;;;;;;6.40;99.90;;;;;;5093379;28;19978;-86
2023/04/10 03:03:36;;;;;;;;;;;6.40;99.90;;;;;;5076186;28;19932;-86
2023/04/10 03:06:01;;;;;;;;;;;6.40;99.90;;;;;;5096451;28;19963;-86
2023/04/10 03:08:29;;;;;;;;;;;6.40;99.90;;;;;;5093365;28;20110;-86
2023/04/10 03:10:54;;;;;;;;;;;6.40;99.90;;;;;;5076709;28;19924;-86
2023/04/10 03:13:22;;;;;;;;;;;6.40;99.90;;;;;;5093147;28;20387;-86
2023/04/10 03:15:47;;;;;;;;;;;6.40;99.90;;;;;;5071009;28;19931;-86
2023/04/10 03:18:13;;;;;;;;;;;6.40;99.90;;;;;;5098923;28;19924;-86
2023/04/10 03:20:38;;;;;;;;;;;6.40;99.90;;;;;;5118977;27;19939;-86
2023/04/10 03:23:04;;;;;;;;;;;6.30;99.90;;;;;;5117591;27;20020;-86
2023/04/10 03:25:35;;;;;;;;;;;6.40;99.90;;;;;;5100624;28;20282;-85
2023/04/10 03:28:01;;;;;;;;;;;6.40;99.90;;;;;;5081062;28;20280;-86
2023/04/10 03:30:26;;;;;;;;;;;6.40;99.90;;;;;;5076876;28;19932;-88
2023/04/10 03:32:52;;;;;;;;;;;6.80;99.90;;;;;;5110778;28;19977;-86
2023/04/10 03:35:17;;;;;;;;;;;6.40;99.90;;;;;;5095084;28;20290;-86
2023/04/10 03:37:43;;;;;;;;;;;6.30;99.90;;;;;;5076672;28;19924;-86
2023/04/10 03:40:09;;;;;;;;;;;6.30;99.90;;;;;;5076272;28;19931;-85
2023/04/10 03:42:35;;;;;;;;;;;6.30;99.90;;;;;;5077004;28;19928;-86
2023/04/10 03:45:03;;;;;;;;;;;6.30;99.90;;;;;;5081676;28;19994;-86
2023/04/10 03:47:32;;;;;;;;;;;6.20;99.90;;;;;;5092839;28;19948;-87
2023/04/10 03:49:58;;;;;;;;;;;6.20;99.90;;;;;;5106649;28;19932;-86
2023/04/10 03:52:24;;;;;;;;;;;6.40;99.90;;;;;;5075848;28;20024;-86
2023/04/10 03:54:50;;;;;;;;;;;6.10;99.90;;;;;;5108907;28;20060;-86
2023/04/10 03:57:17;;;;;;;;;;;6.10;99.90;;;;;;5091990;28;19932;-86
2023/04/10 03:59:43;;;;;;;;;;;6.10;99.90;;;;;;5122794;27;19924;-86
2023/04/10 04:02:08;;;;;;;;;;;6.00;99.90;;;;;;5126192;27;20073;-86
2023/04/10 04:04:36;;;;;;;;;;;6.00;99.90;;;;;;5090587;28;19931;-86
2023/04/10 04:07:02;;;;;;;;;;;6.00;99.90;;;;;;5126765;27;20291;-86
2023/04/10 04:09:27;;;;;;;;;;;6.00;99.90;;;;;;5064670;28;19928;-89
2023/04/10 04:11:53;;;;;;;;;;;6.00;99.90;;;;;;5104870;28;19931;-86
2023/04/10 04:14:19;;;;;;;;;;;5.90;99.90;;;;;;5095374;28;19934;-86
2023/04/10 04:16:44;;;;;;;;;;;5.90;99.90;;;;;;5066636;28;19932;-86
2023/04/10 04:19:10;;;;;;;;;;;5.90;99.90;;;;;;5090111;28;19931;-86
2023/04/10 04:21:35;;;;;;;;;;;5.90;99.90;;;;;;5092548;28;19975;-86
2023/04/10 04:24:01;;;;;;;;;;;5.90;99.90;;;;;;5078443;28;19930;-86
2023/04/10 04:26:26;;;;;;;;;;;5.90;99.90;;;;;;5091416;28;20276;-86
2023/04/10 04:28:52;;;;;;;;;;;5.90;99.90;;;;;;5097479;28;20026;-86
2023/04/10 04:31:18;;;;;;;;;;;5.90;99.90;;;;;;5092528;28;19928;-86
2023/04/10 04:33:43;;;;;;;;;;;5.90;99.90;;;;;;5121692;27;19924;-86
2023/04/10 04:36:09;;;;;;;;;;;5.90;99.90;;;;;;5106239;28;20284;-86
2023/04/10 04:38:34;;;;;;;;;;;6.00;99.90;;;;;;5112412;27;19925;-86
2023/04/10 04:41:00;;;;;;;;;;;5.80;99.90;;;;;;5094437;28;20256;-85
2023/04/10 04:43:25;;;;;;;;;;;5.90;99.90;;;;;;5092074;28;19931;-86
2023/04/10 04:45:51;;;;;;;;;;;5.80;99.90;;;;;;5074245;28;20064;-86
2023/04/10 04:48:17;;;;;;;;;;;5.90;99.90;;;;;;5123009;27;19924;-86
2023/04/10 04:50:42;;;;;;;;;;;5.90;99.90;;;;;;5093220;28;19924;-86
2023/04/10 04:53:08;;;;;;;;;;;5.90;99.90;;;;;;5091507;28;19928;-86
2023/04/10 04:55:34;;;;;;;;;;;6.00;99.90;;;;;;5099617;28;20386;-86
2023/04/10 04:57:59;;;;;;;;;;;6.00;99.90;;;;;;5096631;28;20060;-86
2023/04/10 05:00:25;;;;;;;;;;;6.10;99.90;;;;;;5076728;28;19977;-87
2023/04/10 05:02:50;;;;;;;;;;;6.20;99.90;;;;;;5091188;28;19924;-86
2023/04/10 05:05:16;;;;;;;;;;;6.20;99.90;;;;;;5091919;28;19935;-88
2023/04/10 05:07:42;;;;;;;;;;;6.30;99.90;;;;;;5100011;28;19928;-88
2023/04/10 05:10:07;;;;;;;;;;;6.50;99.90;;;;;;5091148;28;20326;-86
2023/04/10 05:12:33;;;;;;;;;;;6.40;99.90;;;;;;5073649;28;19971;-86
2023/04/10 05:14:59;;;;;;;;;;;6.50;99.90;;;;;;5132318;27;20313;-86
2023/04/10 05:17:25;;;;;;;;;;;6.50;99.90;;;;;;5095783;28;20292;-85
2023/04/10 05:19:50;;;;;;;;;;;6.50;99.90;;;;;;5095569;28;19924;-86
2023/04/10 05:22:16;;;;;;;;;;;6.60;99.90;;;;;;5095748;28;19928;-86
2023/04/10 05:24:41;;;;;;;;;;;6.60;99.90;;;;;;5128649;27;20371;-86
2023/04/10 05:27:07;;;;;;;;;;;6.70;99.90;;;;;;5074575;28;19924;-86
2023/04/10 05:29:33;;;;;;;;;;;6.70;99.90;;;;;;5131676;27;20006;-86
2023/04/10 05:31:59;;;;;;;;;;;6.70;99.90;;;;;;5099928;28;19927;-87
2023/04/10 05:34:24;;;;;;;;;;;6.70;99.90;;;;;;5079467;28;19943;-86
2023/04/10 05:36:50;;;;;;;;;;;6.80;99.90;;;;;;5081703;28;19924;-86
2023/04/10 05:39:16;;;;;;;;;;;6.80;99.90;;;;;;5113792;27;20015;-86
2023/04/10 05:41:41;;;;;;;;;;;6.80;99.90;;;;;;5097077;28;19924;-86
2023/04/10 05:44:07;;;;;;;;;;;6.90;99.90;;;;;;5100017;28;19975;-86
2023/04/10 05:46:32;;;;;;;;;;;6.90;99.90;;;;;;5103124;28;19924;-86
2023/04/10 05:48:58;;;;;;;;;;;6.90;99.90;;;;;;5095582;28;19932;-85
2023/04/10 05:51:25;;;;;;;;;;;7.00;99.90;;;;;;5094111;28;19924;-86
2023/04/10 05:53:50;;;;;;;;;;;7.00;99.90;;;;;;5094295;28;19977;-86
2023/04/10 05:56:16;;;;;;;;;;;7.10;99.90;;;;;;5123372;27;19928;-86
2023/04/10 05:58:42;;;;;;;;;;;7.20;99.90;;;;;;5110997;28;19928;-86
2023/04/10 06:01:07;;;;;;;;;;;7.20;99.90;;;;;;5078122;28;19929;-85
2023/04/10 06:03:33;;;;;;;;;;;7.30;99.90;;;;;;5104826;28;19931;-85
2023/04/10 06:05:59;;;;;;;;;;;7.40;99.90;;;;;;5078609;28;19989;-86
2023/04/10 06:08:25;;;;;;;;;;;7.40;99.90;;;;;;5095776;28;19939;-85
2023/04/10 06:10:53;;;;;;;;;;;7.50;99.90;;;;;;5090818;28;19924;-86
2023/04/10 06:13:19;;;;;;;;;;;7.60;99.90;;;;;;5112055;27;19930;-86
2023/04/10 06:15:44;;;;;;;;;;;7.60;99.90;;;;;;5078815;28;20078;-86
2023/04/10 06:18:10;;;;;;;;;;;7.70;99.90;;;;;;5094776;28;19924;-86
2023/04/10 06:20:38;;;;;;;;;;;7.80;99.90;;;;;;5095291;28;19935;-85
2023/04/10 06:23:04;;;;;;;;;;;7.90;99.90;;;;;;5132101;27;20269;-86
2023/04/10 06:25:30;;;;;;;;;;;8.00;99.90;;;;;;5086959;28;19931;-86
2023/04/10 06:27:56;;;;;;;;;;;8.00;99.90;;;;;;5091167;28;20022;-86
2023/04/10 06:30:21;;;;;;;;;;;8.10;99.90;;;;;;5099570;28;20019;-86
2023/04/10 06:32:47;;;;;;;;;;;8.10;99.90;;;;;;5094862;28;19924;-86
2023/04/10 06:35:12;;;;;;;;;;;8.20;99.90;;;;;;5094690;28;19923;-85
2023/04/10 06:37:38;;;;;;;;;;;8.20;99.90;;;;;;5093958;28;20073;-86
2023/04/10 06:40:05;;;;;;;;;;;8.30;99.90;;;;;;5111846;27;20015;-86
2023/04/10 06:42:30;;;;;;;;;;;8.30;99.90;;;;;;5082109;28;20375;-86
2023/04/10 06:44:56;;;;;;;;;;;8.40;99.90;;;;;;5099932;28;20054;-86
2023/04/10 06:47:22;;;;;;;;;;;8.50;99.90;;;;;;5098223;28;19939;-85
2023/04/10 06:49:47;;;;;;;;;;;8.50;99.90;;;;;;5098926;28;19950;-87
2023/04/10 06:52:13;;;;;;;;;;;8.60;99.90;;;;;;5091144;28;20331;-86
2023/04/10 06:54:39;;;;;;;;;;;8.70;99.90;;;;;;5105173;28;19923;-87
2023/04/10 06:57:05;;;;;;;;;;;8.80;99.90;;;;;;5086226;28;20295;-88
2023/04/10 06:59:33;;;;;;;;;;;8.90;99.90;;;;;;5083769;28;19977;-87
2023/04/10 07:01:59;;;;;;;;;;;9.00;99.90;;;;;;5096460;28;19930;-87
2023/04/10 07:04:24;;;;;;;;;;;9.10;99.90;;;;;;5084996;28;19923;-86
2023/04/10 07:06:50;;;;;;;;;;;9.20;99.90;;;;;;5081384;28;19924;-86
2023/04/10 07:09:16;;;;;;;;;;;9.20;99.90;;;;;;5095410;28;20313;-87
2023/04/10 07:11:41;;;;;;;;;;;9.20;99.90;;;;;;5086532;28;19932;-88
2023/04/10 07:14:07;;;;;;;;;;;9.20;99.90;;;;;;5127544;27;19924;-86
2023/04/10 07:16:33;;;;;;;;;;;9.20;99.90;;;;;;5078800;28;20389;-86
2023/04/10 07:18:58;;;;;;;;;;;9.30;99.90;;;;;;5099203;28;19955;-85
2023/04/10 07:21:25;;;;;;;;;;;9.30;99.90;;;;;;5095272;28;19947;-84
2023/04/10 07:23:51;;;;;;;;;;;9.30;99.90;;;;;;5096909;28;20352;-85
2023/04/10 07:26:17;;;;;;;;;;;9.40;99.90;;;;;;5082505;28;19980;-85
2023/04/10 07:28:43;;;;;;;;;;;9.40;99.90;;;;;;5085624;28;19966;-84
2023/04/10 07:31:09;;;;;;;;;;;9.50;99.90;;;;;;5095932;28;19931;-84
2023/04/10 07:33:35;;;;;;;;;;;9.60;99.90;;;;;;5082162;28;19936;-85
2023/04/10 07:36:02;;;;;;;;;;;9.60;99.90;;;;;;5101068;28;19946;-85
2023/04/10 07:38:27;;;;;;;;;;;9.70;99.90;;;;;;5095751;28;20010;-84
2023/04/10 07:40:56;;;;;;;;;;;9.70;99.90;;;;;;5112877;27;20561;-85
2023/04/10 07:43:22;;;;;;;;;;;9.80;99.90;;;;;;5103427;28;19924;-84
2023/04/10 07:45:48;;;;;;;;;;;9.90;99.90;;;;;;5081938;28;19935;-84
2023/04/10 07:48:13;;;;;;;;;;;10.00;99.90;;;;;;5113627;27;19932;-83
2023/04/10 07:50:39;;;;;;;;;;;10.10;99.90;;;;;;5098551;28;19973;-84
2023/04/10 07:53:06;;;;;;;;;;;10.20;99.90;;;;;;5114634;27;19928;-85
2023/04/10 07:55:39;;;;;;;;;;;10.30;99.90;;;;;;5100888;28;19924;-84
2023/04/10 07:58:05;;;;;;;;;;;10.40;99.90;;;;;;5105190;28;19934;-84
2023/04/10 08:00:31;;;;;;;;;;;10.50;99.90;;;;;;5086661;28;19932;-85
2023/04/10 08:02:56;;;;;;;;;;;10.60;99.90;;;;;;5101228;28;19927;-84
2023/04/10 08:05:22;;;;;;;;;;;10.80;99.90;;;;;;5094314;28;19923;-84
2023/04/10 08:07:50;;;;;;;;;;;10.90;99.90;;;;;;5096239;28;20023;-86
2023/04/10 08:10:16;;;;;;;;;;;11.10;99.90;;;;;;5074041;28;19928;-86
2023/04/10 08:12:41;;;;;;;;;;;11.30;99.90;;;;;;5061399;28;19939;-85
2023/04/10 08:15:07;;;;;;;;;;;11.40;99.90;;;;;;5091717;28;20010;-85
2023/04/10 08:17:32;;;;;;;;;;;11.40;99.90;;;;;;5074719;28;19973;-85
2023/04/10 08:19:58;;;;;;;;;;;11.50;99.90;;;;;;5107930;28;19928;-85
2023/04/10 08:22:24;;;;;;;;;;;11.60;99.90;;;;;;5063820;28;19935;-85
2023/04/10 08:24:49;;;;;;;;;;;11.60;99.90;;;;;;5077994;28;19993;-85
2023/04/10 08:27:15;;;;;;;;;;;11.60;99.90;;;;;;5068039;28;19934;-87
2023/04/10 08:29:41;;;;;;;;;;;11.20;99.90;;;;;;5097075;28;20398;-87
2023/04/10 08:32:07;;;;;;;;;;;11.70;99.90;;;;;;5097206;28;19966;-86
2023/04/10 08:34:33;;;;;;;;;;;11.80;99.90;;;;;;5094579;28;19924;-87
2023/04/10 08:36:58;;;;;;;;;;;11.90;99.90;;;;;;5079366;28;19924;-85
2023/04/10 08:39:24;;;;;;;;;;;11.90;99.90;;;;;;5101739;28;20472;-87
2023/04/10 08:41:50;;;;;;;;;;;12.00;99.90;;;;;;5103729;28;19924;-86
2023/04/10 08:44:15;;;;;;;;;;;12.00;99.90;;;;;;5082869;28;19930;-88
2023/04/10 08:46:42;;;;;;;;;;;12.10;99.90;;;;;;5073443;28;19971;-86
2023/04/10 08:49:09;;;;;;;;;;;12.20;99.90;;;;;;5073822;28;19935;-87
2023/04/10 08:51:38;;;;;;;;;;;12.30;99.90;;;;;;5125477;27;19931;-86
2023/04/10 08:54:05;;;;;;;;;;;12.40;99.90;;;;;;5102813;28;20461;-89
2023/04/10 08:56:35;;;;;;;;;;;12.40;99.90;;;;;;5068158;28;19996;-87
2023/04/10 08:59:01;;;;;;;;;;;12.30;99.90;;;;;;5091316;28;20388;-87
2023/04/10 09:01:34;;;;;;;;;;;12.30;99.90;;;;;;5090241;28;19928;-87
2023/04/10 09:04:00;;;;;;;;;;;12.40;99.90;;;;;;5070017;28;19924;-87
2023/04/10 09:06:28;;;;;;;;;;;12.70;99.90;;;;;;5090025;28;19924;-88
2023/04/10 09:08:54;;;;;;;;;;;12.90;99.90;;;;;;5113766;28;20294;-87
2023/04/10 09:11:22;;;;;;;;;;;13.00;99.90;;;;;;5104974;28;19946;-87
2023/04/10 09:13:47;;;;;;;;;;;12.80;99.90;;;;;;5122930;28;20023;-87
2023/04/10 09:16:13;;;;;;;;;;;13.00;99.90;;;;;;5078762;28;20370;-87
2023/04/10 09:18:43;;;;;;;;;;;13.10;99.90;;;;;;5071892;28;20010;-87
2023/04/10 09:21:12;;;;;;;;;;;13.20;99.90;;;;;;5127646;27;19924;-86
2023/04/10 09:23:45;;;;;;;;;;;13.60;99.90;;;;;;5087848;28;19942;-89
2023/04/10 09:26:23;;;;;;;;;;;13.90;99.90;;;;;;5093146;28;19939;-86
2023/04/10 09:29:00;;;;;;;;;;;13.70;99.90;;;;;;5080899;28;19938;-86
2023/04/10 09:31:30;;;;;;;;;;;14.00;99.90;;;;;;5118153;27;19931;-88
2023/04/10 09:34:12;;;;;;;;;;;13.70;99.90;;;;;;5100976;28;19928;-87
2023/04/10 09:36:41;;;;;;;;;;;13.70;99.90;;;;;;5078034;28;19927;-85
2023/04/10 09:39:07;;;;;;;;;;;13.80;99.90;;;;;;5089753;28;20049;-86
2023/04/10 09:41:33;;;;;;;;;;;13.80;99.90;;;;;;5079947;28;20444;-86
2023/04/10 09:44:09;;;;;;;;;;;13.90;99.90;;;;;;5080364;28;19924;-85
2023/04/10 09:46:34;;;;;;;;;;;14.00;99.90;;;;;;5071728;28;19931;-85
2023/04/10 09:49:03;;;;;;;;;;;14.20;99.90;;;;;;5093918;28;19932;-86
2023/04/10 09:51:30;;;;;;;;;;;14.30;99.90;;;;;;5067833;28;20455;-86
2023/04/10 09:53:55;;;;;;;;;;;14.40;99.80;;;;;;5088423;28;20621;-85
2023/04/10 09:56:21;;;;;;;;;;;14.60;99.90;;;;;;5073720;28;19938;-85
2023/04/10 09:58:48;;;;;;;;;;;14.60;99.90;;;;;;5094196;28;20007;-86
2023/04/10 10:01:14;;;;;;;;;;;14.70;99.60;;;;;;5128442;27;20341;-85
2023/04/10 10:03:39;;;;;;;;;;;14.80;99.20;;;;;;5095342;28;20337;-86
2023/04/10 10:06:05;;;;;;;;;;;13.00;99.70;;;;;;5131745;27;19975;-86
2023/04/10 10:08:32;;;;;;;;;;;14.90;99.90;;;;;;5087666;28;19923;-85
2023/04/10 10:10:58;;;;;;;;;;;15.00;99.90;;;;;;5083794;28;19993;-86
2023/04/10 10:13:30;;;;;;;;;;;15.00;97.70;;;;;;5096637;28;19924;-86
2023/04/10 10:16:08;;;;;;;;;;;15.10;96.90;;;;;;5133705;27;19923;-86
2023/04/10 10:18:46;;;;;;;;;;;15.10;96.10;;;;;;5088350;28;20059;-87
2023/04/10 10:21:15;;;;;;;;;;;15.20;98.60;;;;;;5078650;28;19924;-85
2023/04/10 10:23:44;;;;;;;;;;;15.20;97.80;;;;;;5126531;27;19924;-85
2023/04/10 10:26:11;;;;;;;;;;;15.30;97.90;;;;;;5083557;28;19972;-84
2023/04/10 10:28:38;;;;;;;;;;;15.40;98.10;;;;;;5083912;28;19924;-85
2023/04/10 10:31:04;;;;;;;;;;;15.50;97.20;;;;;;5088487;28;19971;-84
2023/04/10 10:33:32;;;;;;;;;;;15.60;97.50;;;;;;5109760;28;19959;-84
2023/04/10 10:35:59;;;;;;;;;;;15.60;95.90;;;;;;5101821;28;19932;-84
2023/04/10 10:38:26;;;;;;;;;;;15.60;95.30;;;;;;5105706;28;20279;-84
2023/04/10 10:41:01;;;;;;;;;;;15.50;95.10;;;;;;5110537;28;19924;-84
2023/04/10 10:43:51;;;;;;;;;;;15.50;95.00;;;;;;5085186;28;19924;-83
2023/04/10 10:46:26;;;;;;;;;;;15.50;96.10;;;;;;5079815;28;19924;-84
2023/04/10 10:48:56;;;;;;;;;;;15.50;94.70;;;;;;5088473;28;20738;-84
2023/04/10 10:51:22;;;;;;;;;;;15.40;94.20;;;;;;5101716;28;20376;-84
2023/04/10 10:53:48;;;;;;;;;;;15.30;94.80;;;;;;5094568;28;19954;-84
2023/04/10 10:56:22;;;;;;;;;;;15.30;94.80;;;;;;5095385;28;19924;-84
2023/04/10 10:58:48;;;;;;;;;;;15.30;94.20;;;;;;5103680;28;19924;-84
2023/04/10 11:01:14;;;;;;;;;;;15.30;95.20;;;;;;5089755;28;19930;-84
2023/04/10 11:03:40;;;;;;;;;;;15.30;94.60;;;;;;5102821;28;19924;-84
2023/04/10 11:06:07;;;;;;;;;;;15.40;96.00;;;;;;5094680;28;19924;-84
2023/04/10 11:08:52;;;;;;;;;;;15.40;96.00;;;;;;5105807;28;19931;-84
2023/04/10 11:11:19;;;;;;;;;;;17.50;94.70;;;;;;5093887;28;19974;-84
2023/04/10 11:14:03;;;;;;;;;;;15.40;94.50;;;;;;5100042;28;19967;-84
2023/04/10 11:16:28;;;;;;;;;;;15.50;95.60;;;;;;5132701;27;19982;-85
2023/04/10 11:18:54;;;;;;;;;;;15.60;94.10;;;;;;5108187;28;20420;-84
2023/04/10 11:21:20;;;;;;;;;;;15.60;93.80;;;;;;5098646;28;20031;-85
2023/04/10 11:23:49;;;;;;;;;;;15.60;93.60;;;;;;5111415;28;19946;-85
2023/04/10 11:26:35;;;;;;;;;;;15.60;93.30;;;;;;5099894;28;19932;-84
2023/04/10 11:29:01;;;;;;;;;;;15.60;92.30;;;;;;5088735;28;20272;-85
2023/04/10 11:31:27;;;;;;;;;;;15.60;92.70;;;;;;5106736;28;19924;-85
2023/04/10 11:33:59;;;;;;;;;;;15.60;93.00;;;;;;5085432;28;20232;-85
2023/04/10 11:36:25;;;;;;;;;;;15.60;93.00;;;;;;5091820;28;19980;-85
2023/04/10 11:39:01;;;;;;;;;;;15.60;92.90;;;;;;5098758;28;19955;-86
2023/04/10 11:41:29;;;;;;;;;;;15.60;92.50;;;;;;5108940;28;19923;-85
2023/04/10 11:43:55;;;;;;;;;;;15.70;92.60;;;;;;5101908;28;19972;-85
2023/04/10 11:46:21;;;;;;;;;;;15.80;92.70;;;;;;5100989;28;19924;-85
2023/04/10 11:48:54;;;;;;;;;;;15.80;93.80;;;;;;5114654;27;19931;-87
2023/04/10 11:51:20;;;;;;;;;;;16.10;92.10;;;;;;5085016;28;20276;-86
2023/04/10 11:53:46;;;;;;;;;;;15.80;92.40;;;;;;5098706;28;19931;-87
2023/04/10 11:56:23;;;;;;;;;;;15.80;93.80;;;;;;5101515;28;20027;-87
2023/04/10 11:58:52;;;;;;;;;;;15.90;93.20;;;;;;5133081;27;20288;-87
2023/04/10 12:01:20;;;;;;;;;;;16.00;93.30;;;;;;5101907;28;19964;-88
2023/04/10 12:03:45;;;;;;;;;;;16.10;92.20;;;;;;5086585;28;20291;-87
2023/04/10 12:06:12;;;;;;;;;;;16.20;93.20;;;;;;5100857;28;19924;-87
2023/04/10 12:08:45;;;;;;;;;;;16.30;93.30;;;;;;5102532;28;19924;-87
2023/04/10 12:11:11;;;;;;;;;;;16.40;91.80;;;;;;5113799;27;19924;-86
2023/04/10 12:13:37;;;;;;;;;;;16.40;91.30;;;;;;5134554;27;19931;-87
2023/04/10 12:16:06;;;;;;;;;;;16.50;91.50;;;;;;5077734;28;20299;-87
2023/04/10 12:18:32;;;;;;;;;;;16.50;90.80;;;;;;5101650;28;20075;-88
2023/04/10 12:20:58;;;;;;;;;;;16.60;91.30;;;;;;5095771;28;20061;-87
2023/04/10 12:23:25;;;;;;;;;;;16.80;91.40;;;;;;5125001;27;20045;-87
2023/04/10 12:25:51;;;;;;;;;;;17.00;92.10;;;;;;5073633;28;19931;-85
2023/04/10 12:28:17;;;;;;;;;;;17.20;91.00;;;;;;5095506;28;19923;-86
2023/04/10 12:30:47;;;;;;;;;;;17.40;90.80;;;;;;5092440;28;19924;-86
2023/04/10 12:33:12;;;;;;;;;;;17.50;90.90;;;;;;5101348;28;19924;-87
2023/04/10 12:35:39;;;;;;;;;;;17.60;90.40;;;;;;5076550;28;19928;-85
2023/04/10 12:38:04;;;;;;;;;;;17.60;87.20;;;;;;5106553;28;19924;-87
2023/04/10 12:40:30;;;;;;;;;;;17.60;89.30;;;;;;5073716;28;20450;-87
2023/04/10 12:42:58;;;;;;;;;;;17.50;86.00;;;;;;5090996;28;19925;-87
2023/04/10 12:45:45;;;;;;;;;;;17.40;89.10;;;;;;5065323;28;19928;-90
2023/04/10 12:48:13;;;;;;;;;;;17.20;89.10;;;;;;5079530;28;19923;-88
2023/04/10 12:51:05;;;;;;;;;;;17.20;91.30;;;;;;5116599;27;19932;-87
2023/04/10 12:53:31;;;;;;;;;;;15.20;87.60;;;;;;5061856;28;19928;-86
2023/04/10 12:56:06;;;;;;;;;;;16.80;90.90;;;;;;5087754;28;19928;-88
2023/04/10 12:58:34;;;;;;;;;;;16.80;89.00;;;;;;5054593;28;19928;-88
2023/04/10 13:01:04;;;;;;;;;;;16.70;91.70;;;;;;5068163;28;19931;-87
2023/04/10 13:03:35;;;;;;;;;;;16.50;90.10;;;;;;5121705;27;19924;-88
2023/04/10 13:06:01;;;;;;;;;;;16.80;91.10;;;;;;5088030;28;19928;-87
2023/04/10 13:08:34;;;;;;;;;;;16.40;90.70;;;;;;5119866;27;20408;-86
2023/04/10 13:11:02;;;;;;;;;;;16.70;93.20;;;;;;5071806;28;19993;-88
2023/04/10 13:13:31;;;;;;;;;;;16.70;92.30;;;;;;5076258;28;19924;-88
2023/04/10 13:16:12;;;;;;;;;;;;;;;;;;;;;
2023/04/10 13:18:41;;;;;;;;;;;16.40;91.50;;;;;;5072423;28;20362;-88
2023/04/10 13:21:06;;;;;;;;;;;15.90;93.80;;;;;;5069730;28;19978;-85
2023/04/10 13:23:35;;;;;;;;;;;16.50;93.30;;;;;;5090632;28;19932;-88
2023/04/10 13:26:03;;;;;;;;;;;16.50;92.50;;;;;;5085192;28;19935;-88
2023/04/10 13:28:29;;;;;;;;;;;16.30;93.30;;;;;;5073085;28;20303;-86
2023/04/10 13:30:57;;;;;;;;;;;16.30;93.60;;;;;;5088735;28;19924;-85
2023/04/10 13:33:23;;;;;;;;;;;16.60;94.40;;;;;;5078580;28;20014;-84
2023/04/10 13:35:49;;;;;;;;;;;16.30;92.90;;;;;;5076817;28;19928;-84
2023/04/10 13:38:17;;;;;;;;;;;16.30;92.60;;;;;;5115545;27;19994;-87
2023/04/10 13:40:43;;;;;;;;;;;16.30;92.60;;;;;;5097717;28;19985;-88
2023/04/10 13:43:14;;;;;;;;;;;16.30;93.60;;;;;;5075100;28;19928;-88
2023/04/10 13:45:50;;;;;;;;;;;;;;;;;;;;;
2023/04/10 13:51:28;;;;;;;;;;;15.00;91.70;;;;;;5090565;28;19982;-89
2023/04/10 13:54:03;;;;;;;;;;;16.30;93.80;;;;;;5089930;28;19946;-86
2023/04/10 13:56:45;;;;;;;;;;;;;;;;;;;;;
2023/04/10 13:59:18;;;;;;;;;;;16.10;93.00;;;;;;5080146;28;20306;-87
2023/04/10 14:01:44;;;;;;;;;;;16.10;93.10;;;;;;5106588;27;19928;-87
2023/04/10 14:04:13;;;;;;;;;;;16.00;94.30;;;;;;5074868;28;20110;-88
2023/04/10 14:06:39;;;;;;;;;;;16.00;95.40;;;;;;5100099;28;19924;-87
2023/04/10 14:09:10;;;;;;;;;;;16.10;95.00;;;;;;5081558;28;19936;-85
2023/04/10 14:11:36;;;;;;;;;;;16.10;95.40;;;;;;5100576;28;19924;-85
2023/04/10 14:14:07;;;;;;;;;;;15.90;94.30;;;;;;5065000;28;19928;-87
2023/04/10 14:16:45;;;;;;;;;;;;;;;;;;;;;
2023/04/10 14:19:11;;;;;;;;;;;16.20;94.40;;;;;;5101668;28;20399;-88
2023/04/10 14:21:44;;;;;;;;;;;15.70;94.40;;;;;;5086124;28;19924;-87
2023/04/10 14:24:33;;;;;;;;;;;15.70;94.50;;;;;;5079215;28;19924;-86
2023/04/10 14:27:08;;;;;;;;;;;16.00;95.10;;;;;;5098767;28;19928;-86
2023/04/10 14:29:44;;;;;;;;;;;16.20;94.80;;;;;;5097701;28;19953;-86
2023/04/10 14:32:10;;;;;;;;;;;15.80;95.50;;;;;;5084734;28;19924;-87
2023/04/10 14:34:35;;;;;;;;;;;15.70;96.60;;;;;;5056300;28;19932;-86